createdAt,value
2023-01-28T00:02:01.530Z,5.84
2023-01-28T00:04:29.520Z,6.00
2023-01-28T00:06:57.448Z,6.14
2023-01-28T00:09:25.477Z,6.27
2023-01-28T00:11:53.326Z,6.39
2023-01-28T00:14:21.220Z,6.49
2023-01-28T00:16:49.094Z,6.57
2023-01-28T00:19:17.199Z,6.66
2023-01-28T00:21:45.024Z,6.73
2023-01-28T00:24:12.917Z,6.80
2023-01-28T00:26:41.497Z,6.86
2023-01-28T00:29:10.152Z,6.82
2023-01-28T00:31:38.048Z,6.34
2023-01-28T00:34:06.142Z,5.77
2023-01-28T00:36:34.066Z,5.32
2023-01-28T00:39:02.066Z,4.96
2023-01-28T00:41:31.232Z,4.67
2023-01-28T00:43:59.773Z,4.42
2023-01-28T00:46:28.086Z,4.26
2023-01-28T00:48:56.269Z,4.56
2023-01-28T00:51:24.444Z,5.03
2023-01-28T00:53:53.051Z,5.39
2023-01-28T00:56:21.199Z,5.66
2023-01-28T00:58:49.105Z,5.86
2023-01-28T01:01:20.035Z,6.00
2023-01-28T01:03:48.581Z,6.11
2023-01-28T01:06:16.496Z,6.24
2023-01-28T01:08:50.642Z,6.35
2023-01-28T01:11:19.253Z,6.45
2023-01-28T01:13:55.649Z,6.56
2023-01-28T01:16:28.201Z,6.65
2023-01-28T01:18:57.104Z,6.69
2023-01-28T01:21:27.395Z,6.74
2023-01-28T01:23:55.924Z,6.79
2023-01-28T01:26:24.260Z,6.83
2023-01-28T01:28:52.321Z,6.88
2023-01-28T01:31:21.830Z,6.86
2023-01-28T01:33:52.367Z,6.39
2023-01-28T01:36:22.271Z,5.79
2023-01-28T01:38:55.407Z,5.32
2023-01-28T01:41:30.749Z,4.94
2023-01-28T01:44:02.072Z,4.64
2023-01-28T01:46:30.125Z,4.39
2023-01-28T01:49:06.696Z,4.23
2023-01-28T01:51:36.484Z,4.60
2023-01-28T01:54:06.535Z,5.08
2023-01-28T01:56:41.335Z,5.42
2023-01-28T01:59:18.135Z,5.70
2023-01-28T02:01:46.243Z,5.90
2023-01-28T02:04:29.175Z,6.00
2023-01-28T02:07:00.227Z,6.15
2023-01-28T02:09:31.103Z,6.25
2023-01-28T02:12:08.723Z,6.36
2023-01-28T02:14:41.884Z,6.45
2023-01-28T02:17:10.382Z,6.56
2023-01-28T02:19:48.475Z,6.65
2023-01-28T02:22:35.089Z,6.72
2023-01-28T02:25:24.198Z,6.80
2023-01-28T02:28:15.350Z,6.79
2023-01-28T02:30:52.107Z,6.86
2023-01-28T02:33:38.326Z,6.91
2023-01-28T02:36:30.404Z,6.94
2023-01-28T02:39:03.467Z,6.85
2023-01-28T02:41:47.824Z,6.27
2023-01-28T02:44:15.968Z,5.63
2023-01-28T02:47:02.596Z,5.19
2023-01-28T02:49:39.756Z,4.82
2023-01-28T02:53:04.703Z,4.48
2023-01-28T02:56:02.529Z,4.33
2023-01-28T02:58:49.467Z,4.81
2023-01-28T03:01:32.181Z,5.23
2023-01-28T03:04:05.587Z,5.53
2023-01-28T03:06:40.085Z,5.75
2023-01-28T03:09:27.349Z,5.93
2023-01-28T03:12:19.782Z,6.10
2023-01-28T03:15:15.118Z,6.22
2023-01-28T03:18:11.912Z,6.33
2023-01-28T03:21:17.964Z,6.39
2023-01-28T03:24:15.316Z,6.42
2023-01-28T03:27:22.869Z,6.53
2023-01-28T03:30:20.178Z,6.58
2023-01-28T03:33:07.936Z,6.65
2023-01-28T03:35:55.895Z,6.70
2023-01-28T03:38:34.164Z,6.74
2023-01-28T03:41:03.927Z,6.77
2023-01-28T03:43:32.643Z,6.82
2023-01-28T03:46:01.108Z,6.85
2023-01-28T03:48:29.817Z,6.81
2023-01-28T03:51:00.570Z,6.33
2023-01-28T03:53:29.405Z,5.74
2023-01-28T03:55:58.835Z,5.29
2023-01-28T03:58:46.814Z,4.94
2023-01-28T04:01:15.561Z,4.61
2023-01-28T04:03:43.888Z,4.38
2023-01-28T04:06:15.944Z,4.24
2023-01-28T04:08:59.760Z,4.63
2023-01-28T04:11:30.501Z,5.08
2023-01-28T04:13:59.879Z,5.43
2023-01-28T04:16:34.156Z,5.69
2023-01-28T04:19:01.990Z,5.88
2023-01-28T04:21:30.645Z,6.06
2023-01-28T04:23:59.870Z,6.21
2023-01-28T04:26:29.258Z,6.34
2023-01-28T04:28:57.413Z,6.45
2023-01-28T04:31:25.816Z,6.57
2023-01-28T04:34:13.999Z,6.68
2023-01-28T04:37:17.553Z,6.79
2023-01-28T04:40:07.638Z,6.86
2023-01-28T04:42:57.616Z,6.92
2023-01-28T04:45:38.275Z,6.96
2023-01-28T04:48:24.931Z,7.02
2023-01-28T04:51:11.507Z,7.06
2023-01-28T04:53:47.091Z,7.11
2023-01-28T04:56:26.585Z,7.14
2023-01-28T04:58:54.853Z,7.17
2023-01-28T05:01:24.821Z,7.13
2023-01-28T05:03:53.478Z,6.64
2023-01-28T05:06:25.655Z,6.04
2023-01-28T05:09:00.967Z,5.54
2023-01-28T05:11:29.958Z,5.20
2023-01-28T05:14:02.728Z,4.87
2023-01-28T05:16:36.534Z,4.59
2023-01-28T05:19:05.083Z,4.44
2023-01-28T05:21:42.192Z,4.83
2023-01-28T05:24:19.721Z,5.31
2023-01-28T05:26:47.805Z,5.66
2023-01-28T05:29:15.848Z,5.88
2023-01-28T05:31:43.781Z,6.05
2023-01-28T05:34:12.149Z,6.22
2023-01-28T05:36:41.419Z,6.31
2023-01-28T05:39:25.488Z,6.37
2023-01-28T05:41:53.351Z,6.48
2023-01-28T05:44:21.252Z,6.57
2023-01-28T05:47:04.720Z,6.64
2023-01-28T05:49:49.786Z,6.72
2023-01-28T05:52:40.875Z,6.79
2023-01-28T05:55:14.989Z,6.83
2023-01-28T05:57:44.635Z,6.85
2023-01-28T06:00:16.373Z,6.88
2023-01-28T06:02:45.481Z,6.93
2023-01-28T06:05:16.002Z,6.97
2023-01-28T06:07:45.884Z,7.00
2023-01-28T06:10:14.879Z,7.03
2023-01-28T06:12:43.050Z,7.07
2023-01-28T06:15:29.936Z,7.11
2023-01-28T06:18:03.799Z,7.14
2023-01-28T06:20:34.624Z,7.15
2023-01-28T06:23:02.957Z,7.18
2023-01-28T06:25:30.890Z,7.23
2023-01-28T06:28:03.652Z,7.25
2023-01-28T06:30:31.738Z,7.18
2023-01-28T06:32:59.817Z,6.67
2023-01-28T06:35:27.846Z,6.05
2023-01-28T06:37:55.813Z,5.56
2023-01-28T06:40:25.153Z,5.14
2023-01-28T06:42:53.083Z,4.80
2023-01-28T06:45:20.895Z,4.61
2023-01-28T06:47:48.727Z,4.92
2023-01-28T06:50:17.723Z,5.32
2023-01-28T06:52:45.897Z,5.64
2023-01-28T06:55:13.760Z,5.86
2023-01-28T06:57:42.389Z,6.02
2023-01-28T07:00:13.534Z,6.14
2023-01-28T07:02:42.399Z,6.26
2023-01-28T07:05:11.049Z,6.39
2023-01-28T07:07:41.665Z,6.49
2023-01-28T07:10:11.197Z,6.56
2023-01-28T07:12:39.494Z,6.65
2023-01-28T07:15:08.862Z,6.74
2023-01-28T07:17:43.814Z,6.81
2023-01-28T07:20:15.490Z,6.87
2023-01-28T07:22:45.242Z,6.92
2023-01-28T07:25:14.770Z,6.96
2023-01-28T07:27:52.387Z,7.01
2023-01-28T07:30:21.987Z,7.06
2023-01-28T07:32:56.932Z,7.10
2023-01-28T07:35:25.790Z,7.16
2023-01-28T07:37:59.318Z,7.23
2023-01-28T07:40:28.850Z,7.30
2023-01-28T07:42:57.071Z,7.23
2023-01-28T07:45:26.286Z,6.70
2023-01-28T07:47:58.821Z,6.13
2023-01-28T07:50:29.211Z,5.67
2023-01-28T07:52:58.084Z,5.32
2023-01-28T07:55:28.776Z,5.03
2023-01-28T07:58:00.760Z,4.85
2023-01-28T08:00:31.057Z,5.20
2023-01-28T08:03:05.289Z,5.67
2023-01-28T08:05:39.370Z,6.02
2023-01-28T08:08:09.225Z,6.23
2023-01-28T08:10:37.955Z,6.42
2023-01-28T08:13:07.244Z,6.58
2023-01-28T08:15:35.657Z,6.64
2023-01-28T08:18:05.386Z,6.74
2023-01-28T08:20:33.472Z,6.87
2023-01-28T08:23:11.446Z,6.96
2023-01-28T08:25:39.786Z,7.03
2023-01-28T08:28:08.445Z,7.11
2023-01-28T08:30:39.139Z,7.21
2023-01-28T08:33:09.532Z,7.26
2023-01-28T08:35:38.316Z,7.27
2023-01-28T08:38:08.288Z,7.29
2023-01-28T08:40:36.252Z,7.35
2023-01-28T08:43:04.747Z,7.42
2023-01-28T08:45:33.027Z,7.50
2023-01-28T08:48:04.255Z,7.48
2023-01-28T08:50:34.987Z,7.02
2023-01-28T08:53:21.101Z,6.43
2023-01-28T08:55:49.003Z,5.94
2023-01-28T08:58:18.608Z,5.60
2023-01-28T09:00:47.337Z,5.31
2023-01-28T09:03:15.874Z,5.12
2023-01-28T09:05:44.318Z,5.45
2023-01-28T09:08:14.777Z,5.93
2023-01-28T09:10:43.188Z,6.30
2023-01-28T09:13:14.191Z,6.52
2023-01-28T09:15:43.231Z,6.70
2023-01-28T09:18:11.491Z,6.87
2023-01-28T09:20:39.390Z,7.01
2023-01-28T09:23:07.794Z,7.14
2023-01-28T09:25:38.763Z,7.28
2023-01-28T09:28:07.641Z,7.39
2023-01-28T09:30:37.368Z,7.48
2023-01-28T09:33:06.909Z,7.55
2023-01-28T09:35:34.938Z,7.62
2023-01-28T09:38:02.877Z,7.68
2023-01-28T09:40:43.479Z,7.75
2023-01-28T09:43:38.953Z,7.76
2023-01-28T09:46:13.098Z,7.15
2023-01-28T09:48:46.587Z,6.51
2023-01-28T09:51:32.124Z,6.02
2023-01-28T09:54:06.002Z,5.74
2023-01-28T09:56:45.690Z,5.99
2023-01-28T09:59:19.638Z,6.43
2023-01-28T10:02:00.668Z,6.70
2023-01-28T10:04:40.394Z,6.91
2023-01-28T10:07:27.817Z,7.09
2023-01-28T10:10:36.082Z,7.18
2023-01-28T10:13:20.847Z,7.28
2023-01-28T10:16:07.964Z,7.34
2023-01-28T10:18:56.858Z,7.45
2023-01-28T10:21:36.592Z,7.58
2023-01-28T10:24:30.837Z,7.68
2023-01-28T10:26:58.978Z,7.16
2023-01-28T10:29:35.173Z,6.56
2023-01-28T10:32:17.341Z,6.08
2023-01-28T10:34:45.171Z,5.73
2023-01-28T10:37:16.461Z,5.68
2023-01-28T10:39:45.747Z,6.09
2023-01-28T10:42:27.033Z,6.50
2023-01-28T10:45:00.825Z,6.82
2023-01-28T10:47:38.835Z,7.03
2023-01-28T10:50:16.199Z,7.20
2023-01-28T10:53:00.246Z,7.34
2023-01-28T10:55:32.019Z,7.46
2023-01-28T10:58:00.610Z,7.51
2023-01-28T11:00:33.595Z,7.57
2023-01-28T11:03:01.501Z,7.65
2023-01-28T11:05:31.331Z,7.72
2023-01-28T11:08:17.287Z,7.67
2023-01-28T11:10:47.375Z,7.10
2023-01-28T11:13:27.262Z,6.52
2023-01-28T11:16:01.092Z,6.04
2023-01-28T11:18:50.200Z,5.70
2023-01-28T11:21:30.134Z,5.84
2023-01-28T11:24:16.779Z,6.25
2023-01-28T11:26:49.797Z,6.57
2023-01-28T11:29:39.113Z,6.78
2023-01-28T11:32:18.140Z,6.88
2023-01-28T11:34:57.397Z,7.01
2023-01-28T11:37:27.730Z,7.07
2023-01-28T11:40:25.950Z,7.09
2023-01-28T11:42:59.731Z,7.18
2023-01-28T11:45:52.686Z,7.28
2023-01-28T11:48:34.635Z,7.38
2023-01-28T11:51:43.653Z,7.46
2023-01-28T11:54:23.414Z,7.54
2023-01-28T11:57:03.265Z,7.57
2023-01-28T12:00:13.867Z,7.48
2023-01-28T12:03:02.374Z,6.81
2023-01-28T12:05:53.592Z,6.13
2023-01-28T12:08:25.996Z,5.68
2023-01-28T12:10:53.836Z,5.40
2023-01-28T12:13:37.700Z,5.18
2023-01-28T12:16:08.940Z,5.40
2023-01-28T12:19:08.135Z,5.89
2023-01-28T12:21:45.454Z,6.23
2023-01-28T12:24:52.646Z,6.47
2023-01-28T12:27:34.505Z,6.68
2023-01-28T12:30:14.914Z,6.83
2023-01-28T12:33:07.489Z,6.85
2023-01-28T12:35:51.299Z,6.96
2023-01-28T12:38:28.522Z,7.06
2023-01-28T12:41:06.530Z,7.16
2023-01-28T12:44:06.882Z,7.18
2023-01-28T12:46:46.913Z,7.22
2023-01-28T12:49:26.265Z,7.26
2023-01-28T12:52:03.247Z,7.33
2023-01-28T12:54:44.051Z,7.36
2023-01-28T12:57:19.205Z,7.38
2023-01-28T12:59:56.400Z,7.35
2023-01-28T13:02:33.494Z,7.40
2023-01-28T13:12:42.376Z,5.62
2023-01-28T13:15:15.874Z,5.28
2023-01-28T13:18:03.178Z,5.11
2023-01-28T13:20:53.009Z,5.51
2023-01-28T13:23:40.114Z,5.97
2023-01-28T13:26:21.832Z,6.30
2023-01-28T13:28:53.851Z,6.50
2023-01-28T13:31:24.384Z,6.59
2023-01-28T13:33:55.226Z,6.68
2023-01-28T13:36:43.896Z,6.79
2023-01-28T13:39:12.147Z,6.83
2023-01-28T13:41:50.918Z,6.85
2023-01-28T13:44:18.669Z,6.92
2023-01-28T13:46:47.501Z,6.92
2023-01-28T13:49:50.227Z,6.91
2023-01-28T13:52:26.268Z,6.95
2023-01-28T13:55:23.786Z,6.97
2023-01-28T13:58:22.595Z,7.03
2023-01-28T14:01:15.344Z,7.10
2023-01-28T14:03:48.746Z,7.15
2023-01-28T14:06:38.018Z,7.19
2023-01-28T14:09:23.934Z,7.25
2023-01-28T14:12:13.076Z,7.32
2023-01-28T14:15:07.869Z,7.24
2023-01-28T14:17:41.005Z,6.59
2023-01-28T14:20:38.001Z,6.02
2023-01-28T14:23:14.691Z,5.45
2023-01-28T14:25:42.417Z,5.09
2023-01-28T14:28:19.830Z,4.82
2023-01-28T14:30:56.764Z,4.69
2023-01-28T14:33:25.559Z,5.05
2023-01-28T14:35:53.442Z,5.47
2023-01-28T14:38:22.808Z,5.79
2023-01-28T14:40:55.683Z,6.01
2023-01-28T14:43:26.989Z,6.20
2023-01-28T14:46:02.184Z,6.35
2023-01-28T14:48:43.817Z,6.48
2023-01-28T14:51:36.792Z,6.59
2023-01-28T14:54:36.291Z,6.71
2023-01-28T14:57:37.835Z,6.80
2023-01-28T15:00:20.185Z,6.92
2023-01-28T15:02:48.272Z,7.00
2023-01-28T15:05:20.380Z,7.07
2023-01-28T15:07:49.882Z,7.16
2023-01-28T15:10:33.338Z,7.22
2023-01-28T15:13:07.325Z,7.25
2023-01-28T15:15:38.358Z,7.22
2023-01-28T15:18:14.320Z,6.68
2023-01-28T15:20:47.469Z,6.04
2023-01-28T15:23:18.217Z,5.56
2023-01-28T15:25:46.963Z,5.18
2023-01-28T15:28:31.594Z,4.90
2023-01-28T15:30:59.970Z,4.61
2023-01-28T15:33:28.103Z,4.45
2023-01-28T15:35:58.163Z,4.79
2023-01-28T15:38:29.823Z,5.21
2023-01-28T15:41:02.806Z,5.52
2023-01-28T15:43:35.070Z,5.75
2023-01-28T15:46:04.240Z,5.91
2023-01-28T15:48:34.598Z,6.02
2023-01-28T15:51:06.003Z,6.11
2023-01-28T15:53:43.247Z,6.20
2023-01-28T15:56:15.999Z,6.28
2023-01-28T15:58:44.232Z,6.38
2023-01-28T16:01:15.619Z,6.49
2023-01-28T16:03:45.890Z,6.58
2023-01-28T16:06:23.901Z,6.65
2023-01-28T16:08:59.003Z,6.70
2023-01-28T16:11:34.871Z,6.69
2023-01-28T16:14:03.830Z,6.13
2023-01-28T16:16:37.193Z,5.55
2023-01-28T16:19:07.353Z,5.09
2023-01-28T16:21:38.618Z,4.74
2023-01-28T16:24:23.866Z,4.44
2023-01-28T16:27:07.423Z,4.17
2023-01-28T16:29:35.788Z,4.00
2023-01-28T16:32:04.420Z,4.37
2023-01-28T16:34:32.280Z,4.84
2023-01-28T16:37:00.315Z,5.18
2023-01-28T16:39:30.078Z,5.41
2023-01-28T16:41:58.395Z,5.59
2023-01-28T16:44:26.259Z,5.72
2023-01-28T16:46:54.352Z,5.85
2023-01-28T16:49:22.179Z,5.99
2023-01-28T16:51:50.392Z,6.04
2023-01-28T16:54:18.336Z,5.62
2023-01-28T16:56:46.955Z,5.07
2023-01-28T16:59:16.547Z,4.63
2023-01-28T17:01:46.035Z,4.32
2023-01-28T17:04:13.979Z,4.09
2023-01-28T17:06:44.653Z,3.88
2023-01-28T17:09:14.712Z,3.78
2023-01-28T17:11:42.957Z,4.17
2023-01-28T17:14:11.616Z,4.67
2023-01-28T17:16:40.269Z,5.03
2023-01-28T17:19:08.359Z,5.28
2023-01-28T17:21:36.345Z,5.46
2023-01-28T17:24:05.200Z,5.64
2023-01-28T17:26:35.475Z,5.79
2023-01-28T17:29:08.327Z,5.92
2023-01-28T17:31:36.421Z,6.05
2023-01-28T17:34:07.231Z,6.19
2023-01-28T17:36:35.493Z,6.22
2023-01-28T17:39:04.905Z,5.76
2023-01-28T17:41:33.520Z,5.19
2023-01-28T17:44:01.477Z,4.78
2023-01-28T17:46:29.300Z,4.45
2023-01-28T17:48:57.532Z,4.18
2023-01-28T17:51:25.385Z,3.95
2023-01-28T17:53:54.023Z,3.77
2023-01-28T17:56:25.917Z,3.62
2023-01-28T17:59:04.528Z,3.48
2023-01-28T18:01:34.886Z,3.46
2023-01-28T18:04:04.289Z,3.94
2023-01-28T18:06:37.252Z,4.48
2023-01-28T18:09:05.496Z,4.89
2023-01-28T18:11:33.480Z,5.18
2023-01-28T18:14:01.636Z,5.44
2023-01-28T18:16:29.634Z,5.64
2023-01-28T18:18:57.796Z,5.73
2023-01-28T18:21:53.511Z,5.33
2023-01-28T18:24:27.306Z,4.74
2023-01-28T18:34:31.776Z,3.65
2023-01-28T18:37:03.687Z,3.61
2023-01-28T18:39:31.629Z,4.05
2023-01-28T18:42:00.392Z,4.53
2023-01-28T18:44:30.247Z,4.89
2023-01-28T18:46:58.692Z,5.17
2023-01-28T18:49:26.893Z,5.40
2023-01-28T18:51:54.865Z,5.58
2023-01-28T18:54:24.055Z,5.65
2023-01-28T18:56:51.962Z,5.20
2023-01-28T18:59:19.995Z,4.68
2023-01-28T19:01:48.075Z,4.28
2023-01-28T19:04:17.270Z,3.95
2023-01-28T19:06:46.748Z,3.67
2023-01-28T19:09:16.457Z,3.46
2023-01-28T19:11:44.965Z,3.27
2023-01-28T19:14:14.771Z,3.12
2023-01-28T19:16:43.388Z,3.00
2023-01-28T19:19:12.146Z,2.89
2023-01-28T19:21:40.266Z,2.86
2023-01-28T19:24:11.750Z,3.29
2023-01-28T19:26:40.281Z,3.85
2023-01-28T19:29:09.811Z,4.27
2023-01-28T19:31:39.151Z,4.58
2023-01-28T19:34:08.576Z,4.82
2023-01-28T19:36:37.304Z,5.02
2023-01-28T19:39:07.692Z,5.21
2023-01-28T19:41:36.767Z,5.29
2023-01-28T19:44:05.538Z,4.88
2023-01-28T19:46:36.003Z,4.40
2023-01-28T19:49:05.906Z,4.03
2023-01-28T19:51:33.939Z,3.73
2023-01-28T19:54:01.760Z,3.48
2023-01-28T19:56:30.102Z,3.27
2023-01-28T19:58:57.942Z,3.12
2023-01-28T20:01:30.189Z,2.99
2023-01-28T20:04:00.443Z,2.88
2023-01-28T20:06:30.687Z,2.78
2023-01-28T20:09:07.975Z,2.71
2023-01-28T20:11:36.305Z,2.63
2023-01-28T20:14:04.242Z,2.55
2023-01-28T20:16:33.948Z,2.45
2023-01-28T20:19:05.107Z,2.78
2023-01-28T20:21:33.914Z,3.63
2023-01-28T20:24:03.497Z,4.09
2023-01-28T20:26:34.091Z,4.40
2023-01-28T20:29:08.279Z,4.39
2023-01-28T20:31:37.323Z,3.94
2023-01-28T20:34:06.088Z,3.55
2023-01-28T20:36:34.346Z,3.23
2023-01-28T20:39:02.263Z,2.99
2023-01-28T20:41:30.400Z,2.83
2023-01-28T20:43:58.330Z,2.71
2023-01-28T20:46:29.276Z,2.62
2023-01-28T20:48:59.368Z,2.53
2023-01-28T20:51:29.081Z,2.45
2023-01-28T20:53:58.800Z,2.38
2023-01-28T20:56:28.318Z,2.31
2023-01-28T21:03:30.674Z,4.27
2023-01-28T21:05:58.658Z,5.06
2023-01-28T21:08:26.773Z,4.57
2023-01-28T21:10:55.058Z,3.95
2023-01-28T21:13:22.829Z,3.49
2023-01-28T21:15:55.840Z,3.16
2023-01-28T21:18:24.985Z,2.93
2023-01-28T21:20:56.662Z,2.73
2023-01-28T21:23:25.521Z,2.56
2023-01-28T21:25:53.350Z,2.43
2023-01-28T21:28:21.247Z,2.31
2023-01-28T21:30:49.071Z,2.20
2023-01-28T21:33:16.886Z,2.11
2023-01-28T21:35:44.923Z,2.04
2023-01-28T21:38:12.721Z,2.00
2023-01-28T21:40:40.580Z,1.97
2023-01-28T21:43:10.108Z,1.94
2023-01-28T21:45:38.671Z,2.23
2023-01-28T21:48:07.138Z,3.88
2023-01-28T21:50:55.125Z,4.54
2023-01-28T21:53:22.918Z,4.70
2023-01-28T21:55:50.799Z,4.75
2023-01-28T21:58:36.960Z,4.34
2023-01-28T22:01:09.021Z,3.80
2023-01-28T22:03:36.834Z,3.43
2023-01-28T22:06:04.903Z,3.14
2023-01-28T22:08:32.971Z,2.90
2023-01-28T22:11:04.761Z,2.71
2023-01-28T22:13:32.924Z,2.54
2023-01-28T22:16:00.851Z,2.42
2023-01-28T22:18:28.747Z,2.33
2023-01-28T22:21:02.598Z,2.23
2023-01-28T22:23:30.746Z,2.15
2023-01-28T22:25:59.524Z,2.09
2023-01-28T22:28:28.322Z,2.03
2023-01-28T22:31:08.356Z,1.99
2023-01-28T22:33:36.716Z,1.96
2023-01-28T22:36:07.464Z,1.94
2023-01-28T22:38:36.936Z,1.93
2023-01-28T22:41:09.705Z,1.89
2023-01-28T22:43:37.527Z,1.85
2023-01-28T22:46:06.319Z,2.22
2023-01-28T22:48:36.571Z,4.06
2023-01-28T22:51:06.851Z,5.85
2023-01-28T22:53:34.729Z,6.74
2023-01-28T22:56:02.783Z,6.05
2023-01-28T22:58:31.813Z,5.14
2023-01-28T23:01:00.037Z,4.50
2023-01-28T23:03:27.973Z,4.03
2023-01-28T23:06:00.429Z,3.69
2023-01-28T23:08:29.172Z,3.43
2023-01-28T23:11:00.361Z,3.20
2023-01-28T23:13:52.378Z,3.01
2023-01-28T23:16:38.989Z,2.81
2023-01-28T23:19:26.817Z,2.64
2023-01-28T23:22:13.200Z,2.50
2023-01-28T23:24:41.049Z,2.36
2023-01-28T23:27:09.312Z,2.26
2023-01-28T23:29:37.233Z,2.14
2023-01-28T23:32:09.880Z,2.05
2023-01-28T23:34:40.449Z,1.95
2023-01-28T23:37:10.009Z,1.88
2023-01-28T23:39:39.091Z,1.83
2023-01-28T23:42:26.579Z,1.78
2023-01-28T23:44:56.584Z,1.71
2023-01-28T23:47:24.666Z,1.68
2023-01-28T23:49:52.572Z,1.65
2023-01-28T23:52:20.479Z,1.62
2023-01-28T23:54:48.306Z,1.57
2023-01-28T23:57:16.442Z,1.54
2023-01-28T23:59:44.216Z,1.51
